sensor_id;sensor_type;location;lat;lon;timestamp;P1;durP1;ratioP1;P2;durP2;ratioP2
73567;SDS011;61847;54.994;73.310;2022-09-09T00:00:05;2.95;;;1.50;;
73567;SDS011;61847;54.994;73.310;2022-09-09T00:02:38;5.57;;;1.38;;
73567;SDS011;61847;54.994;73.310;2022-09-09T00:08:08;13.07;;;1.70;;
73567;SDS011;61847;54.994;73.310;2022-09-09T00:10:48;4.32;;;1.73;;
73567;SDS011;61847;54.994;73.310;2022-09-09T00:13:29;6.22;;;1.80;;
73567;SDS011;61847;54.994;73.310;2022-09-09T00:16:17;8.85;;;1.98;;
73567;SDS011;61847;54.994;73.310;2022-09-09T00:21:56;5.75;;;2.00;;
73567;SDS011;61847;54.994;73.310;2022-09-09T00:24:45;8.07;;;2.40;;
73567;SDS011;61847;54.994;73.310;2022-09-09T00:27:40;17.95;;;8.48;;
73567;SDS011;61847;54.994;73.310;2022-09-09T00:32:45;7.07;;;1.60;;
73567;SDS011;61847;54.994;73.310;2022-09-09T00:37:47;4.70;;;1.67;;
73567;SDS011;61847;54.994;73.310;2022-09-09T00:40:35;9.00;;;1.80;;
73567;SDS011;61847;54.994;73.310;2022-09-09T00:43:10;8.70;;;2.17;;
73567;SDS011;61847;54.994;73.310;2022-09-09T00:48:50;10.90;;;1.70;;
73567;SDS011;61847;54.994;73.310;2022-09-09T00:56:41;4.32;;;1.70;;
73567;SDS011;61847;54.994;73.310;2022-09-09T00:59:51;13.20;;;2.42;;
73567;SDS011;61847;54.994;73.310;2022-09-09T01:02:27;11.68;;;2.20;;
73567;SDS011;61847;54.994;73.310;2022-09-09T01:05:30;23.98;;;2.70;;
73567;SDS011;61847;54.994;73.310;2022-09-09T01:08:09;12.45;;;2.85;;
73567;SDS011;61847;54.994;73.310;2022-09-09T01:10:56;19.33;;;2.72;;
73567;SDS011;61847;54.994;73.310;2022-09-09T01:13:28;14.60;;;2.60;;
73567;SDS011;61847;54.994;73.310;2022-09-09T01:15:58;18.75;;;2.85;;
73567;SDS011;61847;54.994;73.310;2022-09-09T01:18:34;8.70;;;2.45;;
73567;SDS011;61847;54.994;73.310;2022-09-09T01:27:31;18.50;;;3.60;;
73567;SDS011;61847;54.994;73.310;2022-09-09T01:29:59;30.83;;;3.50;;
73567;SDS011;61847;54.994;73.310;2022-09-09T01:32:38;33.05;;;4.25;;
73567;SDS011;61847;54.994;73.310;2022-09-09T01:38:16;26.60;;;4.10;;
73567;SDS011;61847;54.994;73.310;2022-09-09T01:40:44;31.27;;;4.15;;
73567;SDS011;61847;54.994;73.310;2022-09-09T01:43:16;20.85;;;3.55;;
73567;SDS011;61847;54.994;73.310;2022-09-09T01:45:54;17.10;;;3.17;;
73567;SDS011;61847;54.994;73.310;2022-09-09T01:48:28;20.92;;;3.50;;
73567;SDS011;61847;54.994;73.310;2022-09-09T01:51:09;20.40;;;3.22;;
73567;SDS011;61847;54.994;73.310;2022-09-09T01:53:43;19.83;;;3.30;;
73567;SDS011;61847;54.994;73.310;2022-09-09T01:56:26;20.48;;;2.75;;
73567;SDS011;61847;54.994;73.310;2022-09-09T02:02:52;19.27;;;2.08;;
73567;SDS011;61847;54.994;73.310;2022-09-09T02:05:39;25.23;;;2.53;;
73567;SDS011;61847;54.994;73.310;2022-09-09T02:08:20;24.55;;;3.13;;
73567;SDS011;61847;54.994;73.310;2022-09-09T02:11:03;16.17;;;2.20;;
73567;SDS011;61847;54.994;73.310;2022-09-09T02:13:51;26.80;;;2.65;;
73567;SDS011;61847;54.994;73.310;2022-09-09T02:19:15;19.30;;;2.35;;
73567;SDS011;61847;54.994;73.310;2022-09-09T02:22:19;24.25;;;2.88;;
73567;SDS011;61847;54.994;73.310;2022-09-09T02:24:48;20.55;;;3.25;;
73567;SDS011;61847;54.994;73.310;2022-09-09T02:27:22;14.18;;;2.53;;
73567;SDS011;61847;54.994;73.310;2022-09-09T02:29:59;25.52;;;2.70;;
73567;SDS011;61847;54.994;73.310;2022-09-09T02:32:35;9.98;;;2.10;;
73567;SDS011;61847;54.994;73.310;2022-09-09T02:35:08;16.63;;;2.72;;
73567;SDS011;61847;54.994;73.310;2022-09-09T02:37:39;29.85;;;2.95;;
73567;SDS011;61847;54.994;73.310;2022-09-09T02:40:09;11.00;;;2.42;;
73567;SDS011;61847;54.994;73.310;2022-09-09T02:42:45;18.90;;;2.35;;
73567;SDS011;61847;54.994;73.310;2022-09-09T02:45:15;26.60;;;2.85;;
73567;SDS011;61847;54.994;73.310;2022-09-09T02:47:51;36.20;;;3.25;;
73567;SDS011;61847;54.994;73.310;2022-09-09T02:50:35;25.27;;;2.95;;
73567;SDS011;61847;54.994;73.310;2022-09-09T02:55:55;25.38;;;3.00;;
73567;SDS011;61847;54.994;73.310;2022-09-09T02:58:31;24.65;;;2.63;;
73567;SDS011;61847;54.994;73.310;2022-09-09T03:01:02;17.90;;;2.55;;
73567;SDS011;61847;54.994;73.310;2022-09-09T03:03:30;21.60;;;2.50;;
73567;SDS011;61847;54.994;73.310;2022-09-09T03:06:09;16.58;;;2.17;;
73567;SDS011;61847;54.994;73.310;2022-09-09T03:08:38;31.73;;;2.63;;
73567;SDS011;61847;54.994;73.310;2022-09-09T03:11:09;25.60;;;3.55;;
73567;SDS011;61847;54.994;73.310;2022-09-09T03:13:36;26.30;;;3.03;;
73567;SDS011;61847;54.994;73.310;2022-09-09T03:16:15;27.90;;;2.80;;
73567;SDS011;61847;54.994;73.310;2022-09-09T03:18:45;22.60;;;3.17;;
73567;SDS011;61847;54.994;73.310;2022-09-09T03:21:11;22.08;;;2.88;;
73567;SDS011;61847;54.994;73.310;2022-09-09T03:23:41;23.15;;;2.47;;
73567;SDS011;61847;54.994;73.310;2022-09-09T03:26:17;18.40;;;3.08;;
73567;SDS011;61847;54.994;73.310;2022-09-09T03:28:54;18.55;;;2.72;;
73567;SDS011;61847;54.994;73.310;2022-09-09T03:31:26;17.50;;;2.50;;
73567;SDS011;61847;54.994;73.310;2022-09-09T03:33:56;23.42;;;2.08;;
73567;SDS011;61847;54.994;73.310;2022-09-09T03:36:25;16.52;;;2.38;;
73567;SDS011;61847;54.994;73.310;2022-09-09T03:38:52;15.60;;;1.95;;
73567;SDS011;61847;54.994;73.310;2022-09-09T03:41:21;17.27;;;1.80;;
73567;SDS011;61847;54.994;73.310;2022-09-09T03:46:22;14.20;;;2.00;;
73567;SDS011;61847;54.994;73.310;2022-09-09T03:48:50;15.75;;;1.70;;
73567;SDS011;61847;54.994;73.310;2022-09-09T03:51:22;13.25;;;1.67;;
73567;SDS011;61847;54.994;73.310;2022-09-09T03:53:57;7.03;;;1.98;;
73567;SDS011;61847;54.994;73.310;2022-09-09T03:56:35;13.23;;;2.55;;
73567;SDS011;61847;54.994;73.310;2022-09-09T03:59:03;13.85;;;2.30;;
73567;SDS011;61847;54.994;73.310;2022-09-09T04:01:29;6.55;;;1.58;;
73567;SDS011;61847;54.994;73.310;2022-09-09T04:03:56;12.60;;;1.70;;
73567;SDS011;61847;54.994;73.310;2022-09-09T04:06:24;11.18;;;1.95;;
73567;SDS011;61847;54.994;73.310;2022-09-09T04:08:51;4.82;;;1.23;;
73567;SDS011;61847;54.994;73.310;2022-09-09T04:11:28;9.75;;;1.40;;
73567;SDS011;61847;54.994;73.310;2022-09-09T04:14:07;3.65;;;0.93;;
73567;SDS011;61847;54.994;73.310;2022-09-09T04:16:35;4.20;;;0.88;;
73567;SDS011;61847;54.994;73.310;2022-09-09T04:19:03;6.22;;;1.05;;
73567;SDS011;61847;54.994;73.310;2022-09-09T04:21:32;12.70;;;1.65;;
73567;SDS011;61847;54.994;73.310;2022-09-09T04:24:00;10.05;;;0.80;;
73567;SDS011;61847;54.994;73.310;2022-09-09T04:26:27;4.90;;;1.13;;
73567;SDS011;61847;54.994;73.310;2022-09-09T04:28:53;6.72;;;1.08;;
73567;SDS011;61847;54.994;73.310;2022-09-09T04:31:20;7.80;;;0.98;;
73567;SDS011;61847;54.994;73.310;2022-09-09T04:33:51;6.60;;;0.80;;
73567;SDS011;61847;54.994;73.310;2022-09-09T04:36:29;2.75;;;0.80;;
73567;SDS011;61847;54.994;73.310;2022-09-09T04:38:59;6.50;;;0.90;;
73567;SDS011;61847;54.994;73.310;2022-09-09T04:41:38;11.32;;;1.25;;
73567;SDS011;61847;54.994;73.310;2022-09-09T04:44:15;2.05;;;0.60;;
73567;SDS011;61847;54.994;73.310;2022-09-09T04:46:41;8.32;;;0.63;;
73567;SDS011;61847;54.994;73.310;2022-09-09T04:49:07;4.00;;;0.80;;
73567;SDS011;61847;54.994;73.310;2022-09-09T04:51:34;9.88;;;3.72;;
73567;SDS011;61847;54.994;73.310;2022-09-09T04:54:01;7.32;;;0.90;;
73567;SDS011;61847;54.994;73.310;2022-09-09T04:56:27;2.67;;;0.80;;
73567;SDS011;61847;54.994;73.310;2022-09-09T04:58:58;5.95;;;1.80;;
73567;SDS011;61847;54.994;73.310;2022-09-09T05:01:36;3.65;;;1.10;;
73567;SDS011;61847;54.994;73.310;2022-09-09T05:04:04;5.45;;;0.68;;
73567;SDS011;61847;54.994;73.310;2022-09-09T05:06:32;6.35;;;0.75;;
73567;SDS011;61847;54.994;73.310;2022-09-09T05:09:00;6.45;;;1.08;;
73567;SDS011;61847;54.994;73.310;2022-09-09T05:11:29;8.15;;;1.10;;
73567;SDS011;61847;54.994;73.310;2022-09-09T05:14:20;3.88;;;0.80;;
73567;SDS011;61847;54.994;73.310;2022-09-09T05:16:46;13.02;;;1.10;;
73567;SDS011;61847;54.994;73.310;2022-09-09T05:19:23;8.45;;;1.17;;
73567;SDS011;61847;54.994;73.310;2022-09-09T05:21:51;8.55;;;1.02;;
73567;SDS011;61847;54.994;73.310;2022-09-09T05:24:22;12.32;;;1.30;;
73567;SDS011;61847;54.994;73.310;2022-09-09T05:26:51;3.17;;;1.00;;
73567;SDS011;61847;54.994;73.310;2022-09-09T05:29:19;11.55;;;1.00;;
73567;SDS011;61847;54.994;73.310;2022-09-09T05:31:45;12.80;;;1.17;;
73567;SDS011;61847;54.994;73.310;2022-09-09T05:34:15;15.75;;;1.70;;
73567;SDS011;61847;54.994;73.310;2022-09-09T05:36:41;16.05;;;1.33;;
73567;SDS011;61847;54.994;73.310;2022-09-09T05:39:08;7.85;;;0.68;;
73567;SDS011;61847;54.994;73.310;2022-09-09T05:41:37;14.27;;;1.00;;
73567;SDS011;61847;54.994;73.310;2022-09-09T05:44:05;15.57;;;1.00;;
73567;SDS011;61847;54.994;73.310;2022-09-09T05:46:36;8.93;;;1.05;;
73567;SDS011;61847;54.994;73.310;2022-09-09T05:49:03;11.45;;;0.70;;
73567;SDS011;61847;54.994;73.310;2022-09-09T05:51:34;7.90;;;0.80;;
73567;SDS011;61847;54.994;73.310;2022-09-09T05:54:15;6.70;;;1.00;;
73567;SDS011;61847;54.994;73.310;2022-09-09T05:56:45;8.98;;;1.05;;
73567;SDS011;61847;54.994;73.310;2022-09-09T05:59:17;17.33;;;2.20;;
73567;SDS011;61847;54.994;73.310;2022-09-09T06:01:44;18.73;;;1.65;;
73567;SDS011;61847;54.994;73.310;2022-09-09T06:04:19;10.63;;;1.10;;
73567;SDS011;61847;54.994;73.310;2022-09-09T06:06:48;3.95;;;0.93;;
73567;SDS011;61847;54.994;73.310;2022-09-09T06:09:17;5.97;;;1.25;;
73567;SDS011;61847;54.994;73.310;2022-09-09T06:11:46;6.53;;;1.17;;
73567;SDS011;61847;54.994;73.310;2022-09-09T06:14:14;9.75;;;1.13;;
73567;SDS011;61847;54.994;73.310;2022-09-09T06:16:47;8.95;;;1.40;;
73567;SDS011;61847;54.994;73.310;2022-09-09T06:21:46;2.97;;;0.60;;
73567;SDS011;61847;54.994;73.310;2022-09-09T06:24:13;7.53;;;0.88;;
73567;SDS011;61847;54.994;73.310;2022-09-09T06:26:53;1.45;;;0.70;;
73567;SDS011;61847;54.994;73.310;2022-09-09T06:29:28;2.83;;;1.05;;
73567;SDS011;61847;54.994;73.310;2022-09-09T06:32:03;11.70;;;1.85;;
73567;SDS011;61847;54.994;73.310;2022-09-09T06:34:30;11.48;;;2.20;;
73567;SDS011;61847;54.994;73.310;2022-09-09T06:36:58;2.70;;;0.80;;
73567;SDS011;61847;54.994;73.310;2022-09-09T06:39:26;3.85;;;0.90;;
73567;SDS011;61847;54.994;73.310;2022-09-09T06:41:54;4.85;;;0.55;;
73567;SDS011;61847;54.994;73.310;2022-09-09T06:44:44;6.88;;;0.80;;
73567;SDS011;61847;54.994;73.310;2022-09-09T06:47:17;13.82;;;0.80;;
73567;SDS011;61847;54.994;73.310;2022-09-09T06:49:43;6.05;;;0.70;;
73567;SDS011;61847;54.994;73.310;2022-09-09T06:52:10;1.98;;;0.40;;
73567;SDS011;61847;54.994;73.310;2022-09-09T06:54:47;2.78;;;0.98;;
73567;SDS011;61847;54.994;73.310;2022-09-09T06:57:15;5.07;;;0.70;;
73567;SDS011;61847;54.994;73.310;2022-09-09T06:59:41;5.45;;;0.60;;
73567;SDS011;61847;54.994;73.310;2022-09-09T07:02:08;5.63;;;1.08;;
73567;SDS011;61847;54.994;73.310;2022-09-09T07:04:34;30.05;;;3.40;;
73567;SDS011;61847;54.994;73.310;2022-09-09T07:07:00;9.07;;;0.77;;
73567;SDS011;61847;54.994;73.310;2022-09-09T07:09:27;8.18;;;0.77;;
73567;SDS011;61847;54.994;73.310;2022-09-09T07:11:56;4.68;;;0.85;;
73567;SDS011;61847;54.994;73.310;2022-09-09T07:14:32;6.32;;;0.60;;
73567;SDS011;61847;54.994;73.310;2022-09-09T07:17:03;3.05;;;0.50;;
73567;SDS011;61847;54.994;73.310;2022-09-09T07:19:35;10.00;;;0.90;;
73567;SDS011;61847;54.994;73.310;2022-09-09T07:22:14;8.07;;;0.68;;
73567;SDS011;61847;54.994;73.310;2022-09-09T07:24:41;2.80;;;0.70;;
73567;SDS011;61847;54.994;73.310;2022-09-09T07:27:11;15.25;;;1.00;;
73567;SDS011;61847;54.994;73.310;2022-09-09T07:29:40;7.50;;;1.05;;
73567;SDS011;61847;54.994;73.310;2022-09-09T07:32:07;15.13;;;1.13;;
73567;SDS011;61847;54.994;73.310;2022-09-09T07:34:36;12.43;;;0.90;;
73567;SDS011;61847;54.994;73.310;2022-09-09T07:37:06;7.50;;;0.93;;
73567;SDS011;61847;54.994;73.310;2022-09-09T07:39:33;20.92;;;1.63;;
73567;SDS011;61847;54.994;73.310;2022-09-09T07:42:00;16.50;;;1.08;;
73567;SDS011;61847;54.994;73.310;2022-09-09T07:44:27;5.30;;;0.90;;
73567;SDS011;61847;54.994;73.310;2022-09-09T07:47:07;15.00;;;1.33;;
73567;SDS011;61847;54.994;73.310;2022-09-09T07:49:46;10.82;;;1.10;;
73567;SDS011;61847;54.994;73.310;2022-09-09T07:52:19;7.40;;;0.70;;
73567;SDS011;61847;54.994;73.310;2022-09-09T07:54:48;8.18;;;0.77;;
73567;SDS011;61847;54.994;73.310;2022-09-09T07:57:25;14.80;;;0.80;;
73567;SDS011;61847;54.994;73.310;2022-09-09T07:59:53;5.82;;;0.82;;
73567;SDS011;61847;54.994;73.310;2022-09-09T08:02:20;5.97;;;0.60;;
73567;SDS011;61847;54.994;73.310;2022-09-09T08:04:46;10.85;;;0.95;;
73567;SDS011;61847;54.994;73.310;2022-09-09T08:07:14;12.90;;;1.33;;
73567;SDS011;61847;54.994;73.310;2022-09-09T08:09:47;9.93;;;1.20;;
73567;SDS011;61847;54.994;73.310;2022-09-09T08:12:20;15.02;;;0.85;;
73567;SDS011;61847;54.994;73.310;2022-09-09T08:14:46;10.90;;;0.90;;
73567;SDS011;61847;54.994;73.310;2022-09-09T08:17:15;11.70;;;1.00;;
73567;SDS011;61847;54.994;73.310;2022-09-09T08:19:42;10.98;;;1.05;;
73567;SDS011;61847;54.994;73.310;2022-09-09T08:22:17;6.55;;;0.90;;
73567;SDS011;61847;54.994;73.310;2022-09-09T08:24:43;6.97;;;0.73;;
73567;SDS011;61847;54.994;73.310;2022-09-09T08:27:16;9.60;;;1.02;;
73567;SDS011;61847;54.994;73.310;2022-09-09T08:29:42;10.38;;;1.40;;
73567;SDS011;61847;54.994;73.310;2022-09-09T08:32:16;16.58;;;1.33;;
73567;SDS011;61847;54.994;73.310;2022-09-09T08:34:45;17.92;;;2.08;;
73567;SDS011;61847;54.994;73.310;2022-09-09T08:37:16;12.35;;;1.58;;
73567;SDS011;61847;54.994;73.310;2022-09-09T08:39:51;10.70;;;1.60;;
73567;SDS011;61847;54.994;73.310;2022-09-09T08:45:12;9.55;;;1.20;;
73567;SDS011;61847;54.994;73.310;2022-09-09T08:50:35;18.58;;;1.40;;
73567;SDS011;61847;54.994;73.310;2022-09-09T08:53:25;13.40;;;1.23;;
73567;SDS011;61847;54.994;73.310;2022-09-09T08:55:58;9.30;;;1.00;;
73567;SDS011;61847;54.994;73.310;2022-09-09T08:58:51;16.80;;;1.45;;
73567;SDS011;61847;54.994;73.310;2022-09-09T09:10:21;23.70;;;1.58;;
73567;SDS011;61847;54.994;73.310;2022-09-09T09:13:01;7.10;;;1.20;;
73567;SDS011;61847;54.994;73.310;2022-09-09T09:15:31;12.85;;;1.40;;
73567;SDS011;61847;54.994;73.310;2022-09-09T09:18:03;11.10;;;1.40;;
73567;SDS011;61847;54.994;73.310;2022-09-09T09:20:34;7.90;;;1.67;;
73567;SDS011;61847;54.994;73.310;2022-09-09T09:23:16;3.97;;;1.42;;
73567;SDS011;61847;54.994;73.310;2022-09-09T09:25:48;9.70;;;1.70;;
73567;SDS011;61847;54.994;73.310;2022-09-09T09:28:38;6.90;;;1.27;;
73567;SDS011;61847;54.994;73.310;2022-09-09T09:31:16;7.05;;;1.33;;
73567;SDS011;61847;54.994;73.310;2022-09-09T09:33:48;5.72;;;1.58;;
73567;SDS011;61847;54.994;73.310;2022-09-09T09:36:17;7.65;;;1.60;;
73567;SDS011;61847;54.994;73.310;2022-09-09T09:38:53;7.35;;;1.45;;
73567;SDS011;61847;54.994;73.310;2022-09-09T09:41:41;6.38;;;1.15;;
73567;SDS011;61847;54.994;73.310;2022-09-09T09:44:32;15.73;;;1.55;;
73567;SDS011;61847;54.994;73.310;2022-09-09T09:47:18;3.92;;;1.15;;
73567;SDS011;61847;54.994;73.310;2022-09-09T09:50:01;13.88;;;1.10;;
73567;SDS011;61847;54.994;73.310;2022-09-09T09:52:35;10.55;;;1.20;;
73567;SDS011;61847;54.994;73.310;2022-09-09T09:55:12;7.40;;;1.20;;
73567;SDS011;61847;54.994;73.310;2022-09-09T09:57:50;6.75;;;1.17;;
73567;SDS011;61847;54.994;73.310;2022-09-09T10:00:22;7.80;;;1.30;;
73567;SDS011;61847;54.994;73.310;2022-09-09T10:02:59;17.00;;;4.25;;
73567;SDS011;61847;54.994;73.310;2022-09-09T10:05:35;4.38;;;1.35;;
73567;SDS011;61847;54.994;73.310;2022-09-09T10:08:11;9.80;;;1.57;;
73567;SDS011;61847;54.994;73.310;2022-09-09T10:16:24;5.43;;;1.50;;
73567;SDS011;61847;54.994;73.310;2022-09-09T10:21:31;7.28;;;1.13;;
73567;SDS011;61847;54.994;73.310;2022-09-09T10:26:43;15.32;;;1.52;;
73567;SDS011;61847;54.994;73.310;2022-09-09T10:29:14;8.90;;;1.40;;
73567;SDS011;61847;54.994;73.310;2022-09-09T10:40:34;13.13;;;1.60;;
73567;SDS011;61847;54.994;73.310;2022-09-09T10:48:52;15.73;;;1.73;;
73567;SDS011;61847;54.994;73.310;2022-09-09T10:51:48;11.73;;;1.40;;
73567;SDS011;61847;54.994;73.310;2022-09-09T11:00:15;12.20;;;2.20;;
73567;SDS011;61847;54.994;73.310;2022-09-09T11:02:56;10.90;;;2.22;;
73567;SDS011;61847;54.994;73.310;2022-09-09T11:08:24;15.43;;;1.13;;
73567;SDS011;61847;54.994;73.310;2022-09-09T11:18:43;8.32;;;1.33;;
73567;SDS011;61847;54.994;73.310;2022-09-09T11:21:15;8.02;;;1.40;;
73567;SDS011;61847;54.994;73.310;2022-09-09T11:23:53;5.63;;;1.30;;
73567;SDS011;61847;54.994;73.310;2022-09-09T11:26:29;10.77;;;1.58;;
73567;SDS011;61847;54.994;73.310;2022-09-09T11:29:12;6.95;;;1.40;;
73567;SDS011;61847;54.994;73.310;2022-09-09T11:41:22;9.75;;;2.10;;
73567;SDS011;61847;54.994;73.310;2022-09-09T11:43:43;4.55;;;1.33;;
73567;SDS011;61847;54.994;73.310;2022-09-09T11:46:12;15.70;;;1.80;;
73567;SDS011;61847;54.994;73.310;2022-09-09T11:48:41;15.38;;;1.42;;
73567;SDS011;61847;54.994;73.310;2022-09-09T11:51:11;9.52;;;1.23;;
73567;SDS011;61847;54.994;73.310;2022-09-09T11:53:48;11.82;;;1.70;;
73567;SDS011;61847;54.994;73.310;2022-09-09T11:56:43;12.32;;;1.60;;
73567;SDS011;61847;54.994;73.310;2022-09-09T11:59:19;13.18;;;1.30;;
73567;SDS011;61847;54.994;73.310;2022-09-09T12:02:03;9.55;;;1.80;;
73567;SDS011;61847;54.994;73.310;2022-09-09T12:09:45;15.70;;;1.30;;
73567;SDS011;61847;54.994;73.310;2022-09-09T12:12:24;8.00;;;1.38;;
73567;SDS011;61847;54.994;73.310;2022-09-09T12:17:53;5.65;;;1.38;;
73567;SDS011;61847;54.994;73.310;2022-09-09T12:23:19;6.95;;;0.95;;
73567;SDS011;61847;54.994;73.310;2022-09-09T12:31:52;12.57;;;1.77;;
73567;SDS011;61847;54.994;73.310;2022-09-09T12:34:40;9.10;;;2.50;;
73567;SDS011;61847;54.994;73.310;2022-09-09T12:37:45;11.52;;;3.17;;
73567;SDS011;61847;54.994;73.310;2022-09-09T12:40:25;13.20;;;1.70;;
73567;SDS011;61847;54.994;73.310;2022-09-09T12:42:53;9.00;;;1.80;;
73567;SDS011;61847;54.994;73.310;2022-09-09T12:45:35;10.18;;;1.67;;
73567;SDS011;61847;54.994;73.310;2022-09-09T12:48:11;11.73;;;2.60;;
73567;SDS011;61847;54.994;73.310;2022-09-09T12:50:48;9.13;;;2.60;;
73567;SDS011;61847;54.994;73.310;2022-09-09T12:53:28;19.95;;;3.38;;
73567;SDS011;61847;54.994;73.310;2022-09-09T12:56:00;19.55;;;3.92;;
73567;SDS011;61847;54.994;73.310;2022-09-09T12:58:44;18.38;;;4.95;;
73567;SDS011;61847;54.994;73.310;2022-09-09T13:01:24;26.85;;;4.78;;
73567;SDS011;61847;54.994;73.310;2022-09-09T13:03:57;20.27;;;5.28;;
73567;SDS011;61847;54.994;73.310;2022-09-09T13:06:30;28.67;;;6.40;;
73567;SDS011;61847;54.994;73.310;2022-09-09T13:08:58;15.65;;;6.15;;
73567;SDS011;61847;54.994;73.310;2022-09-09T13:14:28;20.67;;;6.55;;
73567;SDS011;61847;54.994;73.310;2022-09-09T13:16:58;19.25;;;6.35;;
73567;SDS011;61847;54.994;73.310;2022-09-09T13:19:27;25.25;;;6.55;;
73567;SDS011;61847;54.994;73.310;2022-09-09T13:22:13;17.88;;;6.43;;
73567;SDS011;61847;54.994;73.310;2022-09-09T13:24:44;21.25;;;6.47;;
73567;SDS011;61847;54.994;73.310;2022-09-09T13:27:30;26.50;;;6.25;;
73567;SDS011;61847;54.994;73.310;2022-09-09T13:29:57;24.98;;;6.45;;
73567;SDS011;61847;54.994;73.310;2022-09-09T13:32:24;28.00;;;6.25;;
73567;SDS011;61847;54.994;73.310;2022-09-09T13:34:56;26.40;;;6.55;;
73567;SDS011;61847;54.994;73.310;2022-09-09T13:37:27;26.02;;;6.75;;
73567;SDS011;61847;54.994;73.310;2022-09-09T13:39:56;31.35;;;5.90;;
73567;SDS011;61847;54.994;73.310;2022-09-09T13:42:24;45.42;;;13.75;;
73567;SDS011;61847;54.994;73.310;2022-09-09T13:44:53;31.17;;;7.03;;
73567;SDS011;61847;54.994;73.310;2022-09-09T13:47:33;22.63;;;6.15;;
73567;SDS011;61847;54.994;73.310;2022-09-09T13:50:18;31.98;;;6.25;;
73567;SDS011;61847;54.994;73.310;2022-09-09T13:52:56;26.10;;;6.13;;
73567;SDS011;61847;54.994;73.310;2022-09-09T13:55:26;30.20;;;6.22;;
73567;SDS011;61847;54.994;73.310;2022-09-09T13:58:03;41.60;;;5.50;;
73567;SDS011;61847;54.994;73.310;2022-09-09T14:00:32;33.13;;;5.07;;
73567;SDS011;61847;54.994;73.310;2022-09-09T14:03:00;36.78;;;14.45;;
73567;SDS011;61847;54.994;73.310;2022-09-09T14:05:32;27.90;;;6.35;;
73567;SDS011;61847;54.994;73.310;2022-09-09T14:08:06;25.65;;;3.88;;
73567;SDS011;61847;54.994;73.310;2022-09-09T14:10:33;21.83;;;3.42;;
73567;SDS011;61847;54.994;73.310;2022-09-09T14:13:07;16.85;;;2.65;;
73567;SDS011;61847;54.994;73.310;2022-09-09T14:15:38;18.50;;;2.65;;
73567;SDS011;61847;54.994;73.310;2022-09-09T14:18:05;10.05;;;2.22;;
73567;SDS011;61847;54.994;73.310;2022-09-09T14:20:37;18.83;;;2.58;;
73567;SDS011;61847;54.994;73.310;2022-09-09T14:23:04;10.75;;;2.40;;
73567;SDS011;61847;54.994;73.310;2022-09-09T14:25:30;28.25;;;2.65;;
73567;SDS011;61847;54.994;73.310;2022-09-09T14:28:04;16.05;;;2.33;;
73567;SDS011;61847;54.994;73.310;2022-09-09T14:30:30;34.88;;;2.80;;
73567;SDS011;61847;54.994;73.310;2022-09-09T14:33:07;17.77;;;2.38;;
73567;SDS011;61847;54.994;73.310;2022-09-09T14:35:35;15.48;;;2.33;;
73567;SDS011;61847;54.994;73.310;2022-09-09T14:38:02;15.73;;;1.95;;
73567;SDS011;61847;54.994;73.310;2022-09-09T14:40:35;16.15;;;4.38;;
73567;SDS011;61847;54.994;73.310;2022-09-09T14:43:02;27.63;;;3.30;;
73567;SDS011;61847;54.994;73.310;2022-09-09T14:45:29;15.88;;;2.45;;
73567;SDS011;61847;54.994;73.310;2022-09-09T14:47:56;24.63;;;2.35;;
73567;SDS011;61847;54.994;73.310;2022-09-09T14:50:23;10.90;;;2.00;;
73567;SDS011;61847;54.994;73.310;2022-09-09T14:52:54;18.50;;;2.13;;
73567;SDS011;61847;54.994;73.310;2022-09-09T14:55:20;13.57;;;2.03;;
73567;SDS011;61847;54.994;73.310;2022-09-09T14:57:53;11.80;;;2.00;;
73567;SDS011;61847;54.994;73.310;2022-09-09T15:00:20;18.88;;;2.47;;
73567;SDS011;61847;54.994;73.310;2022-09-09T15:02:46;22.58;;;2.65;;
73567;SDS011;61847;54.994;73.310;2022-09-09T15:05:23;22.48;;;2.90;;
73567;SDS011;61847;54.994;73.310;2022-09-09T15:07:59;18.90;;;2.45;;
73567;SDS011;61847;54.994;73.310;2022-09-09T15:10:25;21.88;;;2.58;;
73567;SDS011;61847;54.994;73.310;2022-09-09T15:12:57;21.88;;;2.63;;
73567;SDS011;61847;54.994;73.310;2022-09-09T15:15:23;17.52;;;1.90;;
73567;SDS011;61847;54.994;73.310;2022-09-09T15:17:49;20.40;;;3.08;;
73567;SDS011;61847;54.994;73.310;2022-09-09T15:20:15;23.83;;;2.75;;
73567;SDS011;61847;54.994;73.310;2022-09-09T15:22:42;29.63;;;3.10;;
73567;SDS011;61847;54.994;73.310;2022-09-09T15:25:08;24.63;;;3.03;;
73567;SDS011;61847;54.994;73.310;2022-09-09T15:27:34;12.68;;;2.83;;
73567;SDS011;61847;54.994;73.310;2022-09-09T15:30:00;22.48;;;3.22;;
73567;SDS011;61847;54.994;73.310;2022-09-09T15:32:27;24.67;;;4.93;;
73567;SDS011;61847;54.994;73.310;2022-09-09T15:35:04;31.95;;;4.93;;
73567;SDS011;61847;54.994;73.310;2022-09-09T15:37:31;33.75;;;3.92;;
73567;SDS011;61847;54.994;73.310;2022-09-09T15:40:02;39.08;;;4.00;;
73567;SDS011;61847;54.994;73.310;2022-09-09T15:42:29;38.75;;;4.07;;
73567;SDS011;61847;54.994;73.310;2022-09-09T15:45:00;24.70;;;3.30;;
73567;SDS011;61847;54.994;73.310;2022-09-09T15:47:26;32.30;;;3.22;;
73567;SDS011;61847;54.994;73.310;2022-09-09T15:49:53;26.05;;;4.53;;
73567;SDS011;61847;54.994;73.310;2022-09-09T15:52:19;42.28;;;4.85;;
73567;SDS011;61847;54.994;73.310;2022-09-09T15:54:45;48.13;;;5.50;;
73567;SDS011;61847;54.994;73.310;2022-09-09T15:57:12;29.92;;;4.88;;
73567;SDS011;61847;54.994;73.310;2022-09-09T15:59:38;46.42;;;5.55;;
73567;SDS011;61847;54.994;73.310;2022-09-09T16:02:05;29.48;;;5.03;;
73567;SDS011;61847;54.994;73.310;2022-09-09T16:04:43;38.63;;;5.75;;
73567;SDS011;61847;54.994;73.310;2022-09-09T16:07:09;40.83;;;5.32;;
73567;SDS011;61847;54.994;73.310;2022-09-09T16:09:35;44.78;;;8.05;;
73567;SDS011;61847;54.994;73.310;2022-09-09T16:12:03;23.95;;;5.45;;
73567;SDS011;61847;54.994;73.310;2022-09-09T16:14:44;31.85;;;4.85;;
73567;SDS011;61847;54.994;73.310;2022-09-09T16:17:11;33.92;;;5.47;;
73567;SDS011;61847;54.994;73.310;2022-09-09T16:19:42;47.97;;;7.30;;
73567;SDS011;61847;54.994;73.310;2022-09-09T16:22:08;38.42;;;6.25;;
73567;SDS011;61847;54.994;73.310;2022-09-09T16:24:43;47.42;;;5.80;;
73567;SDS011;61847;54.994;73.310;2022-09-09T16:27:10;42.45;;;8.10;;
73567;SDS011;61847;54.994;73.310;2022-09-09T16:29:37;35.85;;;7.18;;
73567;SDS011;61847;54.994;73.310;2022-09-09T16:32:07;44.20;;;6.47;;
73567;SDS011;61847;54.994;73.310;2022-09-09T16:34:38;59.08;;;6.85;;
73567;SDS011;61847;54.994;73.310;2022-09-09T16:37:04;37.38;;;6.57;;
73567;SDS011;61847;54.994;73.310;2022-09-09T16:39:30;45.00;;;7.22;;
73567;SDS011;61847;54.994;73.310;2022-09-09T16:42:04;48.42;;;7.15;;
73567;SDS011;61847;54.994;73.310;2022-09-09T16:44:40;45.70;;;7.50;;
73567;SDS011;61847;54.994;73.310;2022-09-09T16:47:07;37.97;;;6.53;;
73567;SDS011;61847;54.994;73.310;2022-09-09T16:49:33;38.25;;;5.70;;
73567;SDS011;61847;54.994;73.310;2022-09-09T16:52:00;35.63;;;6.13;;
73567;SDS011;61847;54.994;73.310;2022-09-09T16:54:34;52.67;;;7.47;;
73567;SDS011;61847;54.994;73.310;2022-09-09T16:57:02;31.80;;;7.20;;
73567;SDS011;61847;54.994;73.310;2022-09-09T16:59:28;34.17;;;7.80;;
73567;SDS011;61847;54.994;73.310;2022-09-09T17:01:59;81.10;;;18.05;;
73567;SDS011;61847;54.994;73.310;2022-09-09T17:04:31;49.50;;;9.82;;
73567;SDS011;61847;54.994;73.310;2022-09-09T17:07:07;56.47;;;9.25;;